Illinois River (Oklahoma), Tahlequah (07196500)

StateOklahomaLatestGood (960 cfs)
RiverIllinois RiverRatingObservedEstimated
Updated2026-05-10 9:30 (31 minutes ago)Flood - The river is flooding. Obstacles can be treacherous or deadly. The river should be avoided at this stage for casual trips and definitely for the inexperienced. Trips should be attempted only with protective gear and equipment.Flood(none)3576
Discharge960 cfs (median: 920 cfs)High - The river is high and potentially dangerous, especially for the young and / or inexperienced. Normal stream obstacles are sometimes difficult to navigate. Extended distances can be attempted, but canoe travel may not be advisable.High(none)1816
Height5.97 feetGood - Conditions are ideal for a canoe or kayak. Boats typically will drag on fewer than one-quarter of riffles, if at all, and portages are unnecessary or rare. Normal float lengths can be attempted without a problem.Good300969
TrendFalling (falling over 24 hours)Low - River is low but can still be floated. Some riffles are okay but most come with significant dragging and might need a portage. Float lengths should be reduced to accommodate low flow, dragging, and portages.Low(none)623
USGSExternal icon USGS Site (External icon Duck Duck Go Maps)Poor - River is too low to float comfortably. Most or all riffles will drag or must be portaged and some obstacles (such as slick shelf rock) cause undue problems. Avoid the river at this stage for casual paddling trips.Poor(none)244

Trending Data

Plot Image

Trips for Illinois River (Oklahoma), Tahlequah (07196500)

DateStartEndDistanceConditionDischargeHeightFishingDetails
Click for details2011-10-30 Sparrow Hawk 6 Spark Hawk Campground Total trip distance: 6.0 miles6.0 Good 311 4.88 Great SMB
KSB
LSF
SMB, KSB, LSF
Fillmore, Brian
Fillmore, Rebecca
Fillmore, Brian; Fillmore, Rebecca
No notes for this trip<i>No notes for this trip</i> USGS Gauge Data:
Tahlequah (07196500)
Discharge: 311
Height: 4.88
<b>USGS Gauge Data:</b></br />Tahlequah (07196500)<br />Discharge: 311<br />Height: 4.88
Source: FillmoreSource: Fillmore

A total of 1 rows are displayed.

Trip Summary for Illinois River (Oklahoma), Tahlequah (07196500)

Miles6
Trips1
People2
Dates1
Years1
Months1
Rows1
Sources1

Condition Descriptions

Fishing Conditions

Fish Species

Notes

Classic Trip List

The classic River Trips application is still available for use. It is updated with the new system using a data retrofit. It is no longer maintained. The original River Trips application is no longer updated (as of 1 Dec 2016) but can be checked for errors or for the condition of the data before it was converted to the new system.

Gauge Data Table

ObservationHeightDischargeMaximum
Discharge
Minimum
Discharge
Mean
Discharge
P05P10P20P25P50
(Median)
P75P80P90P95
2026-05-10 09:30 5.97 960 51700 (1950) 174 (1936) 2670 261 332 437 557 920 1820 2150 4700 9410
2026-05-10 08:30 5.98 968 51700 (1950) 174 (1936) 2670 261 332 437 557 920 1820 2150 4700 9410
2026-05-10 07:30 6.00 986 51700 (1950) 174 (1936) 2670 261 332 437 557 920 1820 2150 4700 9410
2026-05-10 06:30 6.01 995 51700 (1950) 174 (1936) 2670 261 332 437 557 920 1820 2150 4700 9410
2026-05-10 05:30 5.99 977 51700 (1950) 174 (1936) 2670 261 332 437 557 920 1820 2150 4700 9410
2026-05-10 04:30 6.00 986 51700 (1950) 174 (1936) 2670 261 332 437 557 920 1820 2150 4700 9410
2026-05-10 03:30 6.01 995 51700 (1950) 174 (1936) 2670 261 332 437 557 920 1820 2150 4700 9410
2026-05-10 01:30 6.01 995 51700 (1950) 174 (1936) 2670 261 332 437 557 920 1820 2150 4700 9410
2026-05-10 00:30 6.02 1000 51700 (1950) 174 (1936) 2670 261 332 437 557 920 1820 2150 4700 9410
2026-05-09 23:30 6.02 1000 51700 (1950) 174 (1936) 2670 261 332 437 557 920 1820 2150 4700 9410
2026-05-09 22:30 6.03 1010 16700 (1995) 185 (1936) 1740 259 307 414 494 989 1980 2220 3660 6250
2026-05-09 21:30 6.03 1010 16700 (1995) 185 (1936) 1740 259 307 414 494 989 1980 2220 3660 6250
2026-05-09 20:30 6.03 1010 16700 (1995) 185 (1936) 1740 259 307 414 494 989 1980 2220 3660 6250
2026-05-09 19:30 6.04 1020 16700 (1995) 185 (1936) 1740 259 307 414 494 989 1980 2220 3660 6250
2026-05-09 18:30 6.05 1030 16700 (1995) 185 (1936) 1740 259 307 414 494 989 1980 2220 3660 6250
2026-05-09 17:30 6.06 1040 16700 (1995) 185 (1936) 1740 259 307 414 494 989 1980 2220 3660 6250
2026-05-09 16:30 6.05 1030 16700 (1995) 185 (1936) 1740 259 307 414 494 989 1980 2220 3660 6250
2026-05-09 15:30 6.09 1070 16700 (1995) 185 (1936) 1740 259 307 414 494 989 1980 2220 3660 6250
2026-05-09 14:30 6.07 1050 16700 (1995) 185 (1936) 1740 259 307 414 494 989 1980 2220 3660 6250
2026-05-09 13:30 6.10 1080 16700 (1995) 185 (1936) 1740 259 307 414 494 989 1980 2220 3660 6250
2026-05-09 12:30 6.10 1080 16700 (1995) 185 (1936) 1740 259 307 414 494 989 1980 2220 3660 6250
2026-05-09 11:30 6.09 1070 16700 (1995) 185 (1936) 1740 259 307 414 494 989 1980 2220 3660 6250
2026-05-09 10:30 6.11 1090 16700 (1995) 185 (1936) 1740 259 307 414 494 989 1980 2220 3660 6250
2026-05-09 09:30 6.13 1110 16700 (1995) 185 (1936) 1740 259 307 414 494 989 1980 2220 3660 6250
2026-05-09 08:30 6.12 1100 16700 (1995) 185 (1936) 1740 259 307 414 494 989 1980 2220 3660 6250
2026-05-09 07:30 6.13 1110 16700 (1995) 185 (1936) 1740 259 307 414 494 989 1980 2220 3660 6250
2026-05-09 06:30 6.14 1120 16700 (1995) 185 (1936) 1740 259 307 414 494 989 1980 2220 3660 6250
2026-05-09 05:30 6.14 1120 16700 (1995) 185 (1936) 1740 259 307 414 494 989 1980 2220 3660 6250
2026-05-09 04:30 6.15 1130 16700 (1995) 185 (1936) 1740 259 307 414 494 989 1980 2220 3660 6250
2026-05-09 03:30 6.15 1130 16700 (1995) 185 (1936) 1740 259 307 414 494 989 1980 2220 3660 6250
2026-05-09 02:30 6.14 1120 16700 (1995) 185 (1936) 1740 259 307 414 494 989 1980 2220 3660 6250
2026-05-09 01:30 6.13 1110 16700 (1995) 185 (1936) 1740 259 307 414 494 989 1980 2220 3660 6250
2026-05-09 00:30 6.13 1110 16700 (1995) 185 (1936) 1740 259 307 414 494 989 1980 2220 3660 6250
2026-05-08 23:30 6.15 1130 16700 (1995) 185 (1936) 1740 259 307 414 494 989 1980 2220 3660 6250
2026-05-08 22:30 6.17 1150 42000 (1961) 182 (1936) 1990 259 307 393 488 956 1740 2150 4070 7150
2026-05-08 21:30 6.16 1140 42000 (1961) 182 (1936) 1990 259 307 393 488 956 1740 2150 4070 7150
2026-05-08 20:30 6.16 1140 42000 (1961) 182 (1936) 1990 259 307 393 488 956 1740 2150 4070 7150
2026-05-08 19:30 6.14 1120 42000 (1961) 182 (1936) 1990 259 307 393 488 956 1740 2150 4070 7150
2026-05-08 18:30 6.16 1140 42000 (1961) 182 (1936) 1990 259 307 393 488 956 1740 2150 4070 7150
2026-05-08 17:30 6.16 1140 42000 (1961) 182 (1936) 1990 259 307 393 488 956 1740 2150 4070 7150
2026-05-08 16:30 6.18 1160 42000 (1961) 182 (1936) 1990 259 307 393 488 956 1740 2150 4070 7150
2026-05-08 15:30 6.19 1170 42000 (1961) 182 (1936) 1990 259 307 393 488 956 1740 2150 4070 7150
2026-05-08 14:30 6.20 1180 42000 (1961) 182 (1936) 1990 259 307 393 488 956 1740 2150 4070 7150
2026-05-08 13:30 6.19 1170 42000 (1961) 182 (1936) 1990 259 307 393 488 956 1740 2150 4070 7150
2026-05-08 12:30 6.21 1190 42000 (1961) 182 (1936) 1990 259 307 393 488 956 1740 2150 4070 7150
2026-05-08 11:30 6.21 1190 42000 (1961) 182 (1936) 1990 259 307 393 488 956 1740 2150 4070 7150
2026-05-08 10:30 6.23 1210 42000 (1961) 182 (1936) 1990 259 307 393 488 956 1740 2150 4070 7150
2026-05-08 09:30 6.24 1220 42000 (1961) 182 (1936) 1990 259 307 393 488 956 1740 2150 4070 7150
2026-05-08 08:30 6.25 1230 42000 (1961) 182 (1936) 1990 259 307 393 488 956 1740 2150 4070 7150
2026-05-08 07:30 6.25 1230 42000 (1961) 182 (1936) 1990 259 307 393 488 956 1740 2150 4070 7150
2026-05-08 06:30 6.27 1250 42000 (1961) 182 (1936) 1990 259 307 393 488 956 1740 2150 4070 7150
2026-05-08 05:30 6.27 1250 42000 (1961) 182 (1936) 1990 259 307 393 488 956 1740 2150 4070 7150
2026-05-08 04:30 6.27 1250 42000 (1961) 182 (1936) 1990 259 307 393 488 956 1740 2150 4070 7150
2026-05-08 03:30 6.29 1270 42000 (1961) 182 (1936) 1990 259 307 393 488 956 1740 2150 4070 7150
2026-05-08 02:30 6.30 1280 42000 (1961) 182 (1936) 1990 259 307 393 488 956 1740 2150 4070 7150
2026-05-08 01:30 6.31 1290 42000 (1961) 182 (1936) 1990 259 307 393 488 956 1740 2150 4070 7150
2026-05-08 00:30 6.31 1290 42000 (1961) 182 (1936) 1990 259 307 393 488 956 1740 2150 4070 7150
2026-05-07 23:30 6.33 1310 42000 (1961) 182 (1936) 1990 259 307 393 488 956 1740 2150 4070 7150
2026-05-07 22:30 6.33 1310 18600 (1960) 174 (1936) 1860 248 318 408 518 974 1680 1960 3590 7700
2026-05-07 21:30 6.34 1320 18600 (1960) 174 (1936) 1860 248 318 408 518 974 1680 1960 3590 7700
2026-05-07 20:30 6.36 1340 18600 (1960) 174 (1936) 1860 248 318 408 518 974 1680 1960 3590 7700
2026-05-07 19:30 6.36 1340 18600 (1960) 174 (1936) 1860 248 318 408 518 974 1680 1960 3590 7700
2026-05-07 18:30 6.37 1350 18600 (1960) 174 (1936) 1860 248 318 408 518 974 1680 1960 3590 7700
2026-05-07 17:30 6.40 1390 18600 (1960) 174 (1936) 1860 248 318 408 518 974 1680 1960 3590 7700
2026-05-07 16:30 6.41 1400 18600 (1960) 174 (1936) 1860 248 318 408 518 974 1680 1960 3590 7700
2026-05-07 15:30 6.42 1410 18600 (1960) 174 (1936) 1860 248 318 408 518 974 1680 1960 3590 7700
2026-05-07 14:30 6.44 1430 18600 (1960) 174 (1936) 1860 248 318 408 518 974 1680 1960 3590 7700
2026-05-07 13:30 6.46 1460 18600 (1960) 174 (1936) 1860 248 318 408 518 974 1680 1960 3590 7700
2026-05-07 12:30 6.49 1490 18600 (1960) 174 (1936) 1860 248 318 408 518 974 1680 1960 3590 7700
2026-05-07 11:30 6.49 1490 18600 (1960) 174 (1936) 1860 248 318 408 518 974 1680 1960 3590 7700
2026-05-07 10:30 6.52 1530 18600 (1960) 174 (1936) 1860 248 318 408 518 974 1680 1960 3590 7700
2026-05-07 09:30 6.53 1540 18600 (1960) 174 (1936) 1860 248 318 408 518 974 1680 1960 3590 7700
2026-05-07 08:30 6.56 1580 18600 (1960) 174 (1936) 1860 248 318 408 518 974 1680 1960 3590 7700
2026-05-07 07:30 6.58 1600 18600 (1960) 174 (1936) 1860 248 318 408 518 974 1680 1960 3590 7700
2026-05-07 06:30 6.62 1650 18600 (1960) 174 (1936) 1860 248 318 408 518 974 1680 1960 3590 7700
2026-05-07 05:30 6.65 1690 18600 (1960) 174 (1936) 1860 248 318 408 518 974 1680 1960 3590 7700
2026-05-07 04:30 6.68 1730 18600 (1960) 174 (1936) 1860 248 318 408 518 974 1680 1960 3590 7700
2026-05-07 03:30 6.70 1750 18600 (1960) 174 (1936) 1860 248 318 408 518 974 1680 1960 3590 7700
2026-05-07 02:30 6.71 1770 18600 (1960) 174 (1936) 1860 248 318 408 518 974 1680 1960 3590 7700
2026-05-07 01:30 6.73 1790 18600 (1960) 174 (1936) 1860 248 318 408 518 974 1680 1960 3590 7700
2026-05-07 00:30 6.75 1820 18600 (1960) 174 (1936) 1860 248 318 408 518 974 1680 1960 3590 7700
2026-05-06 23:30 6.76 1830 18600 (1960) 174 (1936) 1860 248 318 408 518 974 1680 1960 3590 7700

A total of 82 rows are displayed for years 1936 through 2024.